createdAt,value
2018-06-12T00:01:19.582Z,78.20
2018-06-12T00:03:50.818Z,78.90
2018-06-12T00:06:19.020Z,78.90
2018-06-12T00:08:47.213Z,80.30
2018-06-12T00:11:15.406Z,80.00
2018-06-12T00:13:43.623Z,78.80
2018-06-12T00:16:11.816Z,79.00
2018-06-12T00:18:40.051Z,79.30
2018-06-12T00:21:08.270Z,79.80
2018-06-12T00:23:36.489Z,79.10
2018-06-12T00:26:04.691Z,78.70
2018-06-12T00:28:32.929Z,78.80
2018-06-12T00:31:01.117Z,78.90
2018-06-12T00:33:29.357Z,79.30
2018-06-12T00:35:57.578Z,78.30
2018-06-12T00:38:25.754Z,78.50
2018-06-12T00:40:53.950Z,78.80
2018-06-12T00:43:22.181Z,79.20
2018-06-12T00:45:50.373Z,79.40
2018-06-12T00:48:18.619Z,78.70
2018-06-12T00:50:46.806Z,78.90
2018-06-12T00:53:15.014Z,80.30
2018-06-12T00:55:43.218Z,78.80
2018-06-12T00:58:11.445Z,78.60
2018-06-12T01:00:39.693Z,78.50
2018-06-12T01:03:07.898Z,78.50
2018-06-12T01:05:36.073Z,77.90
2018-06-12T01:08:04.277Z,77.80
2018-06-12T01:10:32.482Z,77.70
2018-06-12T01:13:00.685Z,78.40
2018-06-12T01:15:28.898Z,78.10
2018-06-12T01:17:57.104Z,79.30
2018-06-12T01:20:25.313Z,77.90
2018-06-12T01:22:53.513Z,76.80
2018-06-12T01:25:21.729Z,77.00
2018-06-12T01:27:49.947Z,76.20
2018-06-12T01:30:18.166Z,77.20
2018-06-12T01:32:46.362Z,76.30
2018-06-12T01:35:14.573Z,77.20
2018-06-12T01:37:42.791Z,77.90
2018-06-12T01:40:10.973Z,78.30
2018-06-12T01:42:39.162Z,78.50
2018-06-12T01:45:07.403Z,78.50
2018-06-12T01:47:35.597Z,77.70
2018-06-12T01:50:03.786Z,77.80
2018-06-12T01:52:31.952Z,77.80
2018-06-12T01:55:00.113Z,76.50
2018-06-12T01:57:28.269Z,75.60
2018-06-12T01:59:56.434Z,76.00
2018-06-12T02:02:27.709Z,77.10
2018-06-12T02:04:55.878Z,77.10
2018-06-12T02:07:24.029Z,76.60
2018-06-12T02:09:52.213Z,76.80
2018-06-12T02:12:20.382Z,76.40
2018-06-12T02:14:48.546Z,76.30
2018-06-12T02:17:16.710Z,76.00
2018-06-12T02:19:44.874Z,75.50
2018-06-12T02:22:13.033Z,75.90
2018-06-12T02:24:41.181Z,75.70
2018-06-12T02:27:09.357Z,76.50
2018-06-12T02:29:37.528Z,76.10
2018-06-12T02:32:05.774Z,76.40
2018-06-12T02:34:33.967Z,76.50
2018-06-12T02:37:02.141Z,76.60
2018-06-12T02:39:30.319Z,76.90
2018-06-12T02:41:58.489Z,76.40
2018-06-12T02:44:26.700Z,76.50
2018-06-12T02:46:54.798Z,76.10
2018-06-12T02:49:22.955Z,76.00
2018-06-12T02:51:51.166Z,76.20
2018-06-12T02:54:19.321Z,75.70
2018-06-12T02:59:15.460Z,74.70
2018-06-12T03:01:43.617Z,74.60
2018-06-12T03:04:11.773Z,74.50
2018-06-12T03:06:39.922Z,74.00
2018-06-12T03:09:08.958Z,73.90
2018-06-12T03:11:37.141Z,73.80
2018-06-12T03:14:05.335Z,73.60
2018-06-12T03:16:33.506Z,73.80
2018-06-12T03:19:01.652Z,73.50
2018-06-12T03:21:29.825Z,73.80
2018-06-12T03:23:58.013Z,73.00
2018-06-12T03:26:26.203Z,73.50
2018-06-12T03:28:54.361Z,73.10
2018-06-12T03:31:22.535Z,73.50
2018-06-12T03:33:50.690Z,73.90
2018-06-12T03:36:18.857Z,73.30
2018-06-12T03:38:47.054Z,72.50
2018-06-12T03:41:15.217Z,72.60
2018-06-12T03:43:43.380Z,73.50
2018-06-12T03:46:11.550Z,72.90
2018-06-12T03:48:39.726Z,72.70
2018-06-12T03:51:07.959Z,72.40
2018-06-12T03:53:36.159Z,72.20
2018-06-12T03:56:04.399Z,72.90
2018-06-12T03:58:32.625Z,72.70
2018-06-12T04:01:00.831Z,73.30
2018-06-12T04:03:29.062Z,73.70
2018-06-12T04:05:57.265Z,72.70
2018-06-12T04:08:25.505Z,72.40
2018-06-12T04:10:53.727Z,72.40
2018-06-12T04:13:21.949Z,72.00
2018-06-12T04:15:50.166Z,72.80
2018-06-12T04:18:18.382Z,72.50
2018-06-12T04:20:46.617Z,72.20
2018-06-12T04:23:14.843Z,72.30
2018-06-12T04:25:43.159Z,72.60
2018-06-12T04:28:12.205Z,72.00
2018-06-12T04:30:40.412Z,72.00
2018-06-12T04:33:08.613Z,72.20
2018-06-12T04:35:36.851Z,71.60
2018-06-12T04:38:05.053Z,71.90
2018-06-12T04:40:33.282Z,71.80
2018-06-12T04:43:01.906Z,71.20
2018-06-12T04:45:30.142Z,71.20
2018-06-12T04:47:58.366Z,70.90
2018-06-12T04:50:26.623Z,70.50
2018-06-12T04:52:54.889Z,70.20
2018-06-12T04:55:23.101Z,70.30
2018-06-12T04:57:51.336Z,70.40
2018-06-12T05:00:19.554Z,70.90
2018-06-12T05:02:47.775Z,70.30
2018-06-12T05:05:16.001Z,70.30
2018-06-12T05:07:44.210Z,70.60
2018-06-12T05:10:12.413Z,71.00
2018-06-12T05:12:40.694Z,70.80
2018-06-12T05:15:08.901Z,70.30
2018-06-12T05:17:37.127Z,69.90
2018-06-12T05:20:05.349Z,70.10
2018-06-12T05:22:33.639Z,70.20
2018-06-12T05:25:01.830Z,69.00
2018-06-12T05:27:30.056Z,67.50
2018-06-12T05:29:58.243Z,65.60
2018-06-12T05:32:26.485Z,63.00
2018-06-12T05:34:54.692Z,61.20
2018-06-12T05:37:22.889Z,59.30
2018-06-12T05:39:51.093Z,58.00
2018-06-12T05:42:19.295Z,56.10
2018-06-12T05:44:47.513Z,56.10
2018-06-12T05:47:15.730Z,55.10
2018-06-12T05:49:44.018Z,53.70
2018-06-12T05:52:12.239Z,53.00
2018-06-12T05:54:40.436Z,51.80
2018-06-12T05:57:08.649Z,51.10
2018-06-12T05:59:36.858Z,50.60
2018-06-12T06:02:05.062Z,49.30
2018-06-12T06:04:33.256Z,49.40
2018-06-12T06:07:01.513Z,48.90
2018-06-12T06:09:29.737Z,49.20
2018-06-12T06:11:57.942Z,49.00
2018-06-12T06:14:26.159Z,50.10
2018-06-12T06:16:54.374Z,50.40
2018-06-12T06:19:22.574Z,50.90
2018-06-12T06:21:50.761Z,49.80
2018-06-12T06:24:19.020Z,49.50
2018-06-12T06:26:47.236Z,47.00
2018-06-12T06:29:15.425Z,46.10
2018-06-12T06:31:43.630Z,46.20
2018-06-12T06:34:11.850Z,44.70
2018-06-12T06:36:40.082Z,44.30
2018-06-12T06:39:08.386Z,43.80
2018-06-12T06:41:36.585Z,42.60
2018-06-12T06:44:04.810Z,43.70
2018-06-12T06:46:33.001Z,43.90
2018-06-12T06:49:01.260Z,43.50
2018-06-12T06:51:29.458Z,44.80
2018-06-12T06:53:57.726Z,45.90
2018-06-12T06:56:25.946Z,46.70
2018-06-12T06:58:54.210Z,47.10
2018-06-12T07:01:22.366Z,46.50
2018-06-12T07:03:50.657Z,46.70
2018-06-12T07:06:18.950Z,45.80
2018-06-12T07:08:53.946Z,45.00
2018-06-12T07:11:22.149Z,45.00
2018-06-12T07:13:50.345Z,44.60
2018-06-12T07:16:18.573Z,44.90
2018-06-12T07:18:46.798Z,42.90
2018-06-12T07:21:18.867Z,42.80
2018-06-12T07:23:47.095Z,42.40
2018-06-12T07:26:15.410Z,41.10
2018-06-12T07:28:43.606Z,41.70
2018-06-12T07:31:11.859Z,42.10
2018-06-12T07:33:40.073Z,42.90
2018-06-12T07:38:36.217Z,43.30
2018-06-12T07:41:04.417Z,43.70
2018-06-12T07:43:32.660Z,44.80
2018-06-12T07:46:00.872Z,44.60
2018-06-12T07:48:29.117Z,44.00
2018-06-12T07:50:57.382Z,44.30
2018-06-12T07:53:25.565Z,44.60
2018-06-12T07:55:53.846Z,45.40
2018-06-12T07:58:22.058Z,45.60
2018-06-12T08:00:50.307Z,44.90
2018-06-12T08:03:18.469Z,45.60
2018-06-12T08:05:46.667Z,44.90
2018-06-12T08:08:14.886Z,45.40
2018-06-12T08:10:43.118Z,45.80
2018-06-12T08:13:11.319Z,45.30
2018-06-12T08:15:39.512Z,45.90
2018-06-12T08:18:07.741Z,47.10
2018-06-12T08:20:35.939Z,46.20
2018-06-12T08:23:04.163Z,46.50
2018-06-12T08:25:32.387Z,46.00
2018-06-12T08:28:00.658Z,44.00
2018-06-12T08:30:28.926Z,43.50
2018-06-12T08:32:57.061Z,42.90
2018-06-12T08:35:25.271Z,43.10
2018-06-12T08:37:53.512Z,42.00
2018-06-12T08:40:21.726Z,41.00
2018-06-12T08:42:49.973Z,40.80
2018-06-12T08:45:18.200Z,40.30
2018-06-12T08:47:46.406Z,40.60
2018-06-12T08:50:14.631Z,40.80
2018-06-12T08:52:42.851Z,40.60
2018-06-12T08:55:11.045Z,39.70
2018-06-12T08:57:39.240Z,40.40
2018-06-12T09:00:07.402Z,40.10
2018-06-12T09:02:35.564Z,40.40
2018-06-12T09:05:03.750Z,38.80
2018-06-12T09:07:31.997Z,37.80
2018-06-12T09:10:00.190Z,36.70
2018-06-12T09:12:28.473Z,36.70
2018-06-12T09:14:56.635Z,36.60
2018-06-12T09:17:24.819Z,36.60
2018-06-12T09:19:53.025Z,36.60
2018-06-12T09:22:21.178Z,37.10
2018-06-12T09:24:49.341Z,37.00
2018-06-12T09:27:17.512Z,38.70
2018-06-12T09:29:45.686Z,37.70
2018-06-12T09:32:13.866Z,38.30
2018-06-12T09:34:42.047Z,38.50
2018-06-12T09:37:10.222Z,38.70
2018-06-12T09:39:38.517Z,39.00
2018-06-12T09:42:06.693Z,39.30
2018-06-12T09:44:34.897Z,41.50
2018-06-12T09:47:03.095Z,39.90
2018-06-12T09:49:31.270Z,38.50
2018-06-12T09:51:59.521Z,38.10
2018-06-12T09:54:27.741Z,38.50
2018-06-12T09:56:55.961Z,38.50
2018-06-12T09:59:24.194Z,40.10
2018-06-12T10:01:52.450Z,40.80
2018-06-12T10:04:21.106Z,39.80
2018-06-12T10:06:49.290Z,40.20
2018-06-12T10:09:17.520Z,40.70
2018-06-12T10:11:45.724Z,41.00
2018-06-12T10:14:13.954Z,40.10
2018-06-12T10:16:42.187Z,39.60
2018-06-12T10:19:10.966Z,39.50
2018-06-12T10:21:39.226Z,41.00
2018-06-12T10:24:07.409Z,40.80
2018-06-12T10:26:35.685Z,41.80
2018-06-12T10:29:03.922Z,39.80
2018-06-12T10:31:32.123Z,39.20
2018-06-12T10:34:00.310Z,39.70
2018-06-12T10:36:28.538Z,38.80
2018-06-12T10:38:56.717Z,38.90
2018-06-12T10:41:24.950Z,37.90
2018-06-12T10:43:53.182Z,38.00
2018-06-12T10:46:21.383Z,37.60
2018-06-12T10:48:49.683Z,37.90
2018-06-12T10:51:17.902Z,37.70
2018-06-12T10:53:46.179Z,38.70
2018-06-12T10:56:14.698Z,37.90
2018-06-12T10:58:42.955Z,38.00
2018-06-12T11:01:11.106Z,37.60
2018-06-12T11:03:39.389Z,36.90
2018-06-12T11:06:07.504Z,37.00
2018-06-12T11:08:35.679Z,37.50
2018-06-12T11:11:03.859Z,40.00
2018-06-12T11:13:32.011Z,39.60
2018-06-12T11:16:00.203Z,39.20
2018-06-12T11:18:28.366Z,39.20
2018-06-12T11:20:56.521Z,39.30
2018-06-12T11:23:24.768Z,39.70
2018-06-12T11:25:52.961Z,39.40
2018-06-12T11:28:21.164Z,38.10
2018-06-12T11:30:49.333Z,39.60
2018-06-12T11:33:17.482Z,38.80
2018-06-12T11:35:45.646Z,38.50
2018-06-12T11:38:13.824Z,37.30
2018-06-12T11:40:41.996Z,37.90
2018-06-12T11:43:10.128Z,37.40
2018-06-12T11:45:38.345Z,38.30
2018-06-12T11:48:06.767Z,39.00
2018-06-12T11:50:35.006Z,39.10
2018-06-12T11:53:03.221Z,38.30
2018-06-12T11:55:31.425Z,38.90
2018-06-12T11:57:59.620Z,39.10
2018-06-12T12:00:27.814Z,40.50
2018-06-12T12:02:56.006Z,38.70
2018-06-12T12:05:24.286Z,38.40
2018-06-12T12:07:52.529Z,39.40
2018-06-12T12:10:20.731Z,39.50
2018-06-12T12:12:48.953Z,38.10
2018-06-12T12:15:17.163Z,38.60
2018-06-12T12:17:45.399Z,39.80
2018-06-12T12:20:13.623Z,39.00
2018-06-12T12:22:41.807Z,39.20
2018-06-12T12:25:10.003Z,39.00
2018-06-12T12:27:38.241Z,37.80
2018-06-12T12:30:06.450Z,38.30
2018-06-12T12:32:34.675Z,39.50
2018-06-12T12:35:02.892Z,39.00
2018-06-12T12:37:31.126Z,38.50
2018-06-12T12:39:59.310Z,37.60
2018-06-12T12:42:27.526Z,37.80
2018-06-12T12:44:55.723Z,38.10
2018-06-12T12:47:23.998Z,39.00
2018-06-12T12:49:52.204Z,39.60
2018-06-12T12:52:20.388Z,40.10
2018-06-12T12:54:48.567Z,38.80
2018-06-12T12:57:16.746Z,39.70
2018-06-12T12:59:44.931Z,40.00
2018-06-12T13:02:13.109Z,39.10
2018-06-12T13:04:41.308Z,39.70
2018-06-12T13:07:09.461Z,39.30
2018-06-12T13:09:37.657Z,39.70
2018-06-12T13:12:05.861Z,40.10
2018-06-12T13:14:34.109Z,39.30
2018-06-12T13:17:02.353Z,40.70
2018-06-12T13:19:30.553Z,40.40
2018-06-12T13:21:58.701Z,39.30
2018-06-12T13:24:26.889Z,39.40
2018-06-12T13:26:55.061Z,39.80
2018-06-12T13:29:23.263Z,41.30
2018-06-12T13:31:51.425Z,39.80
2018-06-12T13:34:20.213Z,40.20
2018-06-12T13:36:48.387Z,40.90
2018-06-12T13:39:16.562Z,40.80
2018-06-12T13:41:44.730Z,39.40
2018-06-12T13:44:12.929Z,37.90
2018-06-12T13:46:41.179Z,39.50
2018-06-12T13:49:09.865Z,40.50
2018-06-12T13:51:38.122Z,40.90
2018-06-12T13:54:06.312Z,41.90
2018-06-12T13:56:34.558Z,41.70
2018-06-12T13:59:02.803Z,42.60
2018-06-12T14:01:31.077Z,43.30
2018-06-12T14:03:59.331Z,44.10
2018-06-12T14:06:27.585Z,43.60
2018-06-12T14:08:55.779Z,43.70
2018-06-12T14:11:24.036Z,44.20
2018-06-12T14:13:52.490Z,44.40
2018-06-12T14:16:20.680Z,44.10
2018-06-12T14:18:48.889Z,44.00
2018-06-12T14:21:17.066Z,44.30
2018-06-12T14:23:45.314Z,44.10
2018-06-12T14:26:13.526Z,44.50
2018-06-12T14:28:41.845Z,44.40
2018-06-12T14:31:10.136Z,44.80
2018-06-12T14:33:38.365Z,45.20
2018-06-12T14:36:06.593Z,45.70
2018-06-12T14:38:34.795Z,46.40
2018-06-12T14:41:03.018Z,45.90
2018-06-12T14:43:31.364Z,46.50
2018-06-12T14:45:59.579Z,47.20
2018-06-12T14:48:27.820Z,47.80
2018-06-12T14:50:56.094Z,49.20
2018-06-12T14:53:24.318Z,49.70
2018-06-12T14:55:52.510Z,49.50
2018-06-12T14:58:20.741Z,49.50
2018-06-12T15:00:48.974Z,49.50
2018-06-12T15:03:17.163Z,48.60
2018-06-12T15:05:45.541Z,49.60
2018-06-12T15:10:41.769Z,49.80
2018-06-12T15:13:10.018Z,50.50
2018-06-12T15:15:38.255Z,50.60
2018-06-12T15:18:06.562Z,51.60
2018-06-12T15:20:34.786Z,51.70
2018-06-12T15:23:03.030Z,50.10
2018-06-12T15:25:31.237Z,50.30
2018-06-12T15:27:59.470Z,48.80
2018-06-12T15:30:27.679Z,47.90
2018-06-12T15:32:55.941Z,46.00
2018-06-12T15:35:24.146Z,45.90
2018-06-12T15:37:52.345Z,45.70
2018-06-12T15:40:20.646Z,46.70
2018-06-12T15:42:48.858Z,47.60
2018-06-12T15:45:17.097Z,48.50
2018-06-12T15:47:45.330Z,49.30
2018-06-12T15:50:13.496Z,50.20
2018-06-12T15:52:41.650Z,50.40
2018-06-12T15:55:09.810Z,51.30
2018-06-12T15:57:38.031Z,52.50
2018-06-12T16:00:06.182Z,53.70
2018-06-12T16:02:34.338Z,53.90
2018-06-12T16:05:02.511Z,53.70
2018-06-12T16:07:30.678Z,54.30
2018-06-12T16:09:58.877Z,54.90
2018-06-12T16:12:27.048Z,54.70
2018-06-12T16:14:55.239Z,55.40
2018-06-12T16:17:23.412Z,55.00
2018-06-12T16:19:51.644Z,54.70
2018-06-12T16:22:19.863Z,54.80
2018-06-12T16:24:48.042Z,54.70
2018-06-12T16:27:16.219Z,54.30
2018-06-12T16:29:44.398Z,55.00
2018-06-12T16:32:12.549Z,55.40
2018-06-12T16:34:40.698Z,55.20
2018-06-12T16:37:08.873Z,56.30
2018-06-12T16:39:37.072Z,57.90
2018-06-12T16:42:05.226Z,58.20
2018-06-12T16:44:33.424Z,62.60
2018-06-12T16:47:01.594Z,64.30
2018-06-12T16:49:29.779Z,70.10
2018-06-12T16:51:57.949Z,74.50
2018-06-12T16:54:26.152Z,78.20
2018-06-12T16:56:54.329Z,80.40
2018-06-12T17:01:50.519Z,82.80
2018-06-12T17:04:19.034Z,86.80
2018-06-12T17:06:47.194Z,89.70
2018-06-12T17:09:15.391Z,90.00
2018-06-12T17:11:43.867Z,90.90
2018-06-12T17:14:12.134Z,87.80
2018-06-12T17:16:40.297Z,81.60
2018-06-12T17:19:08.473Z,84.90
2018-06-12T17:21:36.689Z,89.50
2018-06-12T17:24:05.012Z,89.50
2018-06-12T17:26:33.169Z,90.40
2018-06-12T17:29:01.376Z,91.20
2018-06-12T17:31:29.569Z,92.70
2018-06-12T17:33:57.849Z,93.30
2018-06-12T17:36:26.078Z,94.10
2018-06-12T17:38:54.226Z,94.90
2018-06-12T17:41:22.442Z,95.60
2018-06-12T17:43:50.611Z,94.10
2018-06-12T17:46:18.824Z,94.60
2018-06-12T17:48:46.997Z,95.80
2018-06-12T17:53:43.193Z,97.10
2018-06-12T17:56:11.498Z,96.60
2018-06-12T17:58:39.709Z,96.80
2018-06-12T18:01:07.969Z,97.10
2018-06-12T18:03:36.195Z,96.80
2018-06-12T18:06:04.558Z,96.90
2018-06-12T18:08:32.782Z,97.40
2018-06-12T18:11:01.811Z,97.60
2018-06-12T18:13:30.025Z,97.50
2018-06-12T18:15:58.257Z,97.40
2018-06-12T18:18:26.471Z,97.30
2018-06-12T18:20:54.678Z,97.00
2018-06-12T18:23:22.933Z,97.20
2018-06-12T18:25:51.114Z,96.80
2018-06-12T18:28:19.310Z,96.70
2018-06-12T18:30:47.548Z,96.20
2018-06-12T18:33:15.750Z,95.90
2018-06-12T18:35:43.974Z,95.60
2018-06-12T18:38:12.308Z,94.80
2018-06-12T18:40:40.519Z,94.70
2018-06-12T18:43:08.737Z,94.50
2018-06-12T18:45:36.963Z,94.90
2018-06-12T18:48:05.198Z,95.00
2018-06-12T18:50:33.489Z,95.60
2018-06-12T18:53:01.707Z,95.50
2018-06-12T18:55:29.930Z,95.50
2018-06-12T18:57:58.170Z,95.00
2018-06-12T19:00:26.436Z,95.20
2018-06-12T19:02:54.654Z,95.80
2018-06-12T19:05:23.185Z,95.30
2018-06-12T19:07:51.407Z,95.00
2018-06-12T19:10:19.660Z,94.90
2018-06-12T19:12:47.885Z,95.40
2018-06-12T19:15:16.121Z,95.40
2018-06-12T19:17:44.329Z,95.40
2018-06-12T19:20:12.603Z,95.90
2018-06-12T19:22:40.813Z,95.80
2018-06-12T19:25:09.052Z,95.50
2018-06-12T19:27:37.238Z,95.90
2018-06-12T19:30:05.439Z,95.90
2018-06-12T19:32:33.658Z,95.50
2018-06-12T19:35:01.858Z,95.60
2018-06-12T19:37:30.125Z,95.40
2018-06-12T19:39:58.338Z,95.50
2018-06-12T19:42:26.604Z,95.60
2018-06-12T19:44:54.842Z,95.50
2018-06-12T19:47:23.090Z,95.40
2018-06-12T19:49:51.318Z,94.90
2018-06-12T19:54:47.529Z,95.30
2018-06-12T19:59:43.686Z,94.60
2018-06-12T20:02:11.927Z,94.40
2018-06-12T20:04:40.146Z,94.40
2018-06-12T20:07:08.411Z,94.70
2018-06-12T20:09:36.625Z,94.60
2018-06-12T20:12:04.974Z,94.60
2018-06-12T20:14:33.191Z,94.70
2018-06-12T20:17:01.438Z,94.50
2018-06-12T20:19:29.713Z,94.70
2018-06-12T20:21:57.925Z,94.80
2018-06-12T20:24:26.173Z,94.60
2018-06-12T20:26:54.441Z,93.90
2018-06-12T20:29:22.686Z,93.50
2018-06-12T20:31:50.925Z,93.10
2018-06-12T20:34:19.155Z,93.10
2018-06-12T20:36:47.384Z,93.20
2018-06-12T20:39:15.590Z,93.40
2018-06-12T20:41:43.806Z,92.60
2018-06-12T20:44:12.108Z,93.50
2018-06-12T20:46:40.415Z,93.70
2018-06-12T20:49:08.594Z,93.30
2018-06-12T20:51:36.778Z,93.30
2018-06-12T20:54:04.984Z,93.90
2018-06-12T20:56:33.230Z,94.40
2018-06-12T20:59:01.450Z,94.00
2018-06-12T21:01:29.630Z,94.20
2018-06-12T21:03:57.813Z,94.10
2018-06-12T21:06:25.985Z,93.90
2018-06-12T21:08:54.161Z,94.90
2018-06-12T21:11:22.364Z,94.40
2018-06-12T21:13:50.540Z,94.90
2018-06-12T21:16:18.749Z,94.30
2018-06-12T21:18:46.993Z,94.30
2018-06-12T21:21:15.169Z,94.00
2018-06-12T21:23:43.353Z,94.60
2018-06-12T21:26:11.522Z,94.90
2018-06-12T21:28:39.693Z,95.70
2018-06-12T21:31:07.850Z,95.70
2018-06-12T21:33:36.029Z,95.60
2018-06-12T21:36:04.322Z,95.70
2018-06-12T21:38:32.528Z,95.50
2018-06-12T21:41:00.704Z,95.70
2018-06-12T21:43:28.871Z,95.40
2018-06-12T21:45:57.037Z,95.70
2018-06-12T21:48:25.230Z,96.10
2018-06-12T21:50:53.425Z,96.50
2018-06-12T21:53:21.683Z,96.20
2018-06-12T21:55:49.890Z,95.60
2018-06-12T21:58:18.130Z,95.40
2018-06-12T22:00:46.414Z,95.40
2018-06-12T22:03:14.649Z,95.80
2018-06-12T22:05:42.867Z,94.30
2018-06-12T22:08:11.069Z,95.10
2018-06-12T22:10:39.306Z,94.80
2018-06-12T22:13:07.505Z,95.70
2018-06-12T22:15:35.711Z,96.10
2018-06-12T22:18:03.978Z,96.00
2018-06-12T22:20:32.185Z,96.30
2018-06-12T22:23:00.401Z,96.60
2018-06-12T22:25:28.627Z,96.10
2018-06-12T22:27:56.850Z,96.10
2018-06-12T22:30:25.052Z,96.00
2018-06-12T22:32:53.253Z,96.40
2018-06-12T22:35:21.477Z,96.60
2018-06-12T22:37:49.706Z,97.00
2018-06-12T22:40:17.893Z,97.00
2018-06-12T22:42:46.077Z,96.80
2018-06-12T22:45:14.330Z,96.80
2018-06-12T22:47:42.585Z,96.40
2018-06-12T22:52:38.714Z,96.50
2018-06-12T22:55:06.865Z,96.00
2018-06-12T22:57:41.518Z,95.90
2018-06-12T23:00:09.739Z,96.10
2018-06-12T23:02:37.909Z,96.10
2018-06-12T23:05:06.102Z,96.40
2018-06-12T23:07:34.250Z,96.90
2018-06-12T23:10:02.409Z,96.90
2018-06-12T23:12:30.586Z,96.80
2018-06-12T23:14:58.757Z,96.30
2018-06-12T23:17:26.919Z,96.40
2018-06-12T23:20:36.646Z,96.60
2018-06-12T23:23:04.798Z,96.90
2018-06-12T23:25:32.976Z,96.70
2018-06-12T23:28:01.125Z,96.60
2018-06-12T23:30:29.321Z,97.10
2018-06-12T23:32:57.513Z,96.40
2018-06-12T23:35:25.701Z,96.00
2018-06-12T23:37:54.020Z,95.90
2018-06-12T23:40:22.302Z,95.90
2018-06-12T23:42:50.470Z,96.10
2018-06-12T23:45:18.625Z,95.90
2018-06-12T23:47:46.775Z,96.20
2018-06-12T23:50:14.995Z,96.10
2018-06-12T23:52:43.177Z,96.00
2018-06-12T23:55:11.383Z,96.00
2018-06-12T23:57:39.596Z,96.20
